createdAt,value
2019-05-22T00:00:49.005Z,98.94
2019-05-22T00:01:48.950Z,98.66
2019-05-22T00:02:48.928Z,98.94
2019-05-22T00:03:48.846Z,98.75
2019-05-22T00:04:48.800Z,99.52
2019-05-22T00:05:48.743Z,99.42
2019-05-22T00:06:48.693Z,98.94
2019-05-22T00:07:48.680Z,97.89
2019-05-22T00:08:48.590Z,98.85
2019-05-22T00:09:48.540Z,99.13
2019-05-22T00:10:48.487Z,98.66
2019-05-22T00:11:48.433Z,99.52
2019-05-22T00:12:48.432Z,99.61
2019-05-22T00:13:48.334Z,99.13
2019-05-22T00:14:48.278Z,99.23
2019-05-22T00:15:48.259Z,99.42
2019-05-22T00:16:48.176Z,99.32
2019-05-22T00:17:48.124Z,99.23
2019-05-22T00:18:48.103Z,99.04
2019-05-22T00:19:48.083Z,99.80
2019-05-22T00:20:47.967Z,99.90
2019-05-22T00:21:47.916Z,99.99
2019-05-22T00:22:47.865Z,99.80
2019-05-22T00:23:47.911Z,99.61
2019-05-22T00:24:47.763Z,99.99
2019-05-22T00:25:47.743Z,99.99
2019-05-22T00:26:47.658Z,99.90
2019-05-22T00:27:47.605Z,99.52
2019-05-22T00:28:47.585Z,99.71
2019-05-22T00:29:47.517Z,99.99
2019-05-22T00:30:47.452Z,99.52
2019-05-22T00:31:47.431Z,99.99
2019-05-22T00:32:47.369Z,99.42
2019-05-22T00:33:47.295Z,99.23
2019-05-22T00:34:47.275Z,99.13
2019-05-22T00:35:47.191Z,99.32
2019-05-22T00:36:47.140Z,99.61
2019-05-22T00:37:47.090Z,99.42
2019-05-22T00:38:47.038Z,99.23
2019-05-22T00:39:47.015Z,99.23
2019-05-22T00:40:46.932Z,99.04
2019-05-22T00:41:46.879Z,99.80
2019-05-22T00:43:01.153Z,99.80
2019-05-22T00:43:46.780Z,99.90
2019-05-22T00:44:46.758Z,99.04
2019-05-22T00:45:46.680Z,98.99
2019-05-22T00:46:46.624Z,99.08
2019-05-22T00:47:46.571Z,98.94
2019-05-22T00:48:46.551Z,98.85
2019-05-22T00:49:46.472Z,99.23
2019-05-22T00:50:46.428Z,98.85
2019-05-22T00:51:46.364Z,99.32
2019-05-22T00:52:46.318Z,99.32
2019-05-22T00:53:46.290Z,99.27
2019-05-22T00:54:46.211Z,99.66
2019-05-22T00:55:46.158Z,99.42
2019-05-22T00:56:46.142Z,99.32
2019-05-22T00:57:46.055Z,99.42
2019-05-22T00:58:46.004Z,99.23
2019-05-22T00:59:45.963Z,99.23
2019-05-22T01:00:45.938Z,98.94
2019-05-22T01:01:45.855Z,99.61
2019-05-22T01:02:45.799Z,99.90
2019-05-22T01:03:45.745Z,99.90
2019-05-22T01:04:45.726Z,99.75
2019-05-22T01:05:45.673Z,99.80
2019-05-22T01:06:45.592Z,99.95
2019-05-22T01:07:45.537Z,99.90
2019-05-22T01:08:45.490Z,99.61
2019-05-22T01:09:45.436Z,99.85
2019-05-22T01:10:45.414Z,99.95
2019-05-22T01:11:45.338Z,99.90
2019-05-22T01:12:45.280Z,99.61
2019-05-22T01:13:45.229Z,99.61
2019-05-22T01:14:45.175Z,99.75
2019-05-22T01:15:45.170Z,99.99
2019-05-22T01:16:45.074Z,99.99
2019-05-22T01:17:45.184Z,99.66
2019-05-22T01:18:44.974Z,99.37
2019-05-22T01:19:44.917Z,99.99
2019-05-22T01:20:44.896Z,99.85
2019-05-22T01:21:44.844Z,99.75
2019-05-22T01:22:47.319Z,99.99
2019-05-22T01:23:44.711Z,99.99
2019-05-22T01:24:44.658Z,99.95
2019-05-22T01:25:44.607Z,99.99
2019-05-22T01:26:44.589Z,99.99
2019-05-22T01:27:44.505Z,99.37
2019-05-22T01:28:44.451Z,99.18
2019-05-22T01:29:44.402Z,99.08
2019-05-22T01:30:44.346Z,98.90
2019-05-22T01:31:44.327Z,99.08
2019-05-22T01:32:44.244Z,99.18
2019-05-22T01:33:44.193Z,99.18
2019-05-22T01:34:44.143Z,99.18
2019-05-22T01:35:44.089Z,99.27
2019-05-22T01:36:44.071Z,99.08
2019-05-22T01:37:44.017Z,99.18
2019-05-22T01:38:43.963Z,98.80
2019-05-22T01:39:43.887Z,99.66
2019-05-22T01:40:43.830Z,99.75
2019-05-22T01:41:43.778Z,99.37
2019-05-22T01:42:43.758Z,99.18
2019-05-22T01:43:43.679Z,98.80
2019-05-22T01:44:59.750Z,99.18
2019-05-22T01:45:43.570Z,99.18
2019-05-22T01:46:43.548Z,98.99
2019-05-22T01:47:43.472Z,99.18
2019-05-22T01:48:43.415Z,99.08
2019-05-22T01:49:43.401Z,99.18
2019-05-22T01:50:43.317Z,99.18
2019-05-22T01:51:43.260Z,98.80
2019-05-22T01:52:43.233Z,98.99
2019-05-22T01:53:43.162Z,99.18
2019-05-22T01:54:43.106Z,99.46
2019-05-22T01:55:43.055Z,98.99
2019-05-22T01:56:43.038Z,98.70
2019-05-22T01:57:42.978Z,98.51
2019-05-22T01:58:42.906Z,98.61
2019-05-22T01:59:42.848Z,98.80
2019-05-22T02:00:42.828Z,98.70
2019-05-22T02:01:42.743Z,98.61
2019-05-22T02:02:42.701Z,98.99
2019-05-22T02:03:42.638Z,98.80
2019-05-22T02:04:42.587Z,98.61
2019-05-22T02:05:42.568Z,98.99
2019-05-22T02:06:42.485Z,99.18
2019-05-22T02:07:42.446Z,98.99
2019-05-22T02:08:42.404Z,98.32
2019-05-22T02:09:42.330Z,98.22
2019-05-22T02:10:42.276Z,98.03
2019-05-22T02:11:42.227Z,98.13
2019-05-22T02:12:42.173Z,98.42
2019-05-22T02:13:42.169Z,98.22
2019-05-22T02:14:42.073Z,99.18
2019-05-22T02:15:42.017Z,98.99
2019-05-22T02:16:55.483Z,98.80
2019-05-22T02:17:41.915Z,98.99
2019-05-22T02:18:41.892Z,98.99
2019-05-22T02:19:41.810Z,98.80
2019-05-22T02:20:41.765Z,98.80
2019-05-22T02:21:41.717Z,98.99
2019-05-22T02:22:41.655Z,98.90
2019-05-22T02:23:41.634Z,98.90
2019-05-22T02:24:41.553Z,98.99
2019-05-22T02:25:41.542Z,98.99
2019-05-22T02:26:41.448Z,98.80
2019-05-22T02:27:41.395Z,98.42
2019-05-22T02:28:41.343Z,98.80
2019-05-22T02:29:41.296Z,98.99
2019-05-22T02:30:41.291Z,98.22
2019-05-22T02:31:41.195Z,98.03
2019-05-22T02:32:41.206Z,98.03
2019-05-22T02:33:41.083Z,98.80
2019-05-22T02:34:41.036Z,99.08
2019-05-22T02:35:41.026Z,98.80
2019-05-22T02:36:40.945Z,98.80
2019-05-22T02:37:40.883Z,99.18
2019-05-22T02:38:40.827Z,99.08
2019-05-22T02:39:40.776Z,98.99
2019-05-22T02:40:40.768Z,98.99
2019-05-22T02:41:40.671Z,98.80
2019-05-22T02:42:40.621Z,98.80
2019-05-22T02:43:40.566Z,98.90
2019-05-22T02:44:40.514Z,98.61
2019-05-22T02:45:40.494Z,98.13
2019-05-22T02:46:40.412Z,98.13
2019-05-22T02:47:40.363Z,97.94
2019-05-22T02:48:42.382Z,98.22
2019-05-22T02:49:40.256Z,98.80
2019-05-22T02:50:40.238Z,99.18
2019-05-22T02:51:40.195Z,98.42
2019-05-22T02:52:40.100Z,98.99
2019-05-22T02:53:40.080Z,98.61
2019-05-22T02:54:39.997Z,98.22
2019-05-22T02:55:39.946Z,98.03
2019-05-22T02:56:39.937Z,98.22
2019-05-22T02:57:39.844Z,98.61
2019-05-22T02:58:39.789Z,98.61
2019-05-22T02:59:39.738Z,98.70
2019-05-22T03:00:39.701Z,98.80
2019-05-22T03:01:39.665Z,98.80
2019-05-22T03:02:39.581Z,98.99
2019-05-22T03:03:39.563Z,99.08
2019-05-22T03:04:39.483Z,99.18
2019-05-22T03:05:39.426Z,99.27
2019-05-22T03:06:39.384Z,99.37
2019-05-22T03:07:39.355Z,98.99
2019-05-22T03:08:39.305Z,98.80
2019-05-22T03:09:39.237Z,98.80
2019-05-22T03:10:39.166Z,99.18
2019-05-22T03:11:39.123Z,98.80
2019-05-22T03:12:39.106Z,99.08
2019-05-22T03:13:39.009Z,99.46
2019-05-22T03:14:38.958Z,99.56
2019-05-22T03:15:38.907Z,99.18
2019-05-22T03:16:38.855Z,99.37
2019-05-22T03:17:38.845Z,99.18
2019-05-22T03:18:38.751Z,99.27
2019-05-22T03:19:38.698Z,98.70
2019-05-22T03:20:38.678Z,99.37
2019-05-22T03:21:38.599Z,99.08
2019-05-22T03:22:38.580Z,99.95
2019-05-22T03:23:38.496Z,99.66
2019-05-22T03:24:38.440Z,99.56
2019-05-22T03:25:38.422Z,99.46
2019-05-22T03:26:38.336Z,99.37
2019-05-22T03:27:38.284Z,99.37
2019-05-22T03:28:38.233Z,99.37
2019-05-22T03:29:38.185Z,99.75
2019-05-22T03:30:38.182Z,99.85
2019-05-22T03:31:38.080Z,99.99
2019-05-22T03:32:43.407Z,99.46
2019-05-22T03:33:37.972Z,99.99
2019-05-22T03:34:37.930Z,99.99
2019-05-22T03:35:37.900Z,99.99
2019-05-22T03:36:37.817Z,99.99
2019-05-22T03:37:37.795Z,99.99
2019-05-22T03:38:37.710Z,99.85
2019-05-22T03:39:37.664Z,99.99
2019-05-22T03:40:37.607Z,99.85
2019-05-22T03:41:37.556Z,99.75
2019-05-22T03:42:37.537Z,99.85
2019-05-22T03:43:37.453Z,99.66
2019-05-22T03:44:37.404Z,99.99
2019-05-22T03:45:37.382Z,99.99
2019-05-22T03:46:37.306Z,99.99
2019-05-22T03:47:37.276Z,99.99
2019-05-22T03:48:37.195Z,99.99
2019-05-22T03:49:37.147Z,99.99
2019-05-22T03:50:37.092Z,99.99
2019-05-22T03:51:37.044Z,99.99
2019-05-22T03:52:37.019Z,99.99
2019-05-22T03:53:36.964Z,99.99
2019-05-22T03:54:36.887Z,99.99
2019-05-22T03:55:36.833Z,99.99
2019-05-22T03:56:36.788Z,99.99
2019-05-22T03:57:36.726Z,99.99
2019-05-22T03:58:36.703Z,99.99
2019-05-22T03:59:36.621Z,99.99
2019-05-22T04:00:36.574Z,99.99
2019-05-22T04:01:36.527Z,99.95
2019-05-22T04:02:36.477Z,99.99
2019-05-22T04:03:36.446Z,99.99
2019-05-22T04:04:36.362Z,99.99
2019-05-22T04:05:36.309Z,99.99
2019-05-22T04:06:36.262Z,99.99
2019-05-22T04:07:36.211Z,99.99
2019-05-22T04:08:36.187Z,99.99
2019-05-22T04:09:36.103Z,99.99
2019-05-22T04:10:36.056Z,99.99
2019-05-22T04:11:35.999Z,99.99
2019-05-22T04:12:35.969Z,99.99
2019-05-22T04:13:35.946Z,99.99
2019-05-22T04:14:35.843Z,99.99
2019-05-22T04:15:35.790Z,99.99
2019-05-22T04:16:35.741Z,99.99
2019-05-22T04:17:35.717Z,99.99
2019-05-22T04:18:35.674Z,99.99
2019-05-22T04:19:48.556Z,99.99
2019-05-22T04:20:35.535Z,99.99
2019-05-22T04:21:35.489Z,99.99
2019-05-22T04:22:35.431Z,99.99
2019-05-22T04:23:35.422Z,99.99
2019-05-22T04:24:35.328Z,99.99
2019-05-22T04:25:35.272Z,99.99
2019-05-22T04:26:35.224Z,99.99
2019-05-22T04:27:35.174Z,99.99
2019-05-22T04:28:35.217Z,99.99
2019-05-22T04:29:35.078Z,99.99
2019-05-22T04:30:35.015Z,99.99
2019-05-22T04:31:34.962Z,99.99
2019-05-22T04:32:34.909Z,99.99
2019-05-22T04:33:34.899Z,99.99
2019-05-22T04:34:34.812Z,99.99
2019-05-22T04:35:34.775Z,99.99
2019-05-22T04:36:34.709Z,99.99
2019-05-22T04:37:34.650Z,99.99
2019-05-22T04:38:34.629Z,99.99
2019-05-22T04:39:34.546Z,99.99
2019-05-22T04:40:34.495Z,99.99
2019-05-22T04:41:34.442Z,99.99
2019-05-22T04:42:34.392Z,99.99
2019-05-22T04:43:34.391Z,99.99
2019-05-22T04:44:34.317Z,99.99
2019-05-22T04:45:34.235Z,99.99
2019-05-22T04:46:34.186Z,99.99
2019-05-22T04:47:34.135Z,99.99
2019-05-22T04:48:34.083Z,99.99
2019-05-22T04:49:34.058Z,99.99
2019-05-22T04:50:34.040Z,99.99
2019-05-22T04:51:33.956Z,99.99
2019-05-22T04:52:33.873Z,99.99
2019-05-22T04:53:33.820Z,99.99
2019-05-22T04:54:33.774Z,99.99
2019-05-22T04:55:33.717Z,99.99
2019-05-22T04:56:33.765Z,99.99
2019-05-22T04:57:33.700Z,99.99
2019-05-22T04:58:33.567Z,99.99
2019-05-22T04:59:33.508Z,99.99
2019-05-22T05:00:33.457Z,99.99
2019-05-22T05:01:33.485Z,99.99
2019-05-22T05:02:33.352Z,99.99
2019-05-22T05:03:33.303Z,99.99
2019-05-22T05:04:33.253Z,99.99
2019-05-22T05:05:33.194Z,99.99
2019-05-22T05:06:33.193Z,99.99
2019-05-22T05:07:33.093Z,99.99
2019-05-22T05:08:33.081Z,99.99
2019-05-22T05:09:32.991Z,99.99
2019-05-22T05:10:32.940Z,99.99
2019-05-22T05:11:32.884Z,99.99
2019-05-22T05:12:32.839Z,99.99
2019-05-22T05:13:32.816Z,99.99
2019-05-22T05:14:32.774Z,99.99
2019-05-22T05:15:32.678Z,99.99
2019-05-22T05:16:32.626Z,99.99
2019-05-22T05:17:32.580Z,99.99
2019-05-22T05:18:32.522Z,99.99
2019-05-22T05:19:32.505Z,99.99
2019-05-22T05:20:32.423Z,99.99
2019-05-22T05:21:32.368Z,99.99
2019-05-22T05:22:32.315Z,99.99
2019-05-22T05:23:32.273Z,99.99
2019-05-22T05:24:32.254Z,99.99
2019-05-22T05:25:32.158Z,99.99
2019-05-22T05:26:32.137Z,99.99
2019-05-22T05:27:32.061Z,99.99
2019-05-22T05:28:32.005Z,99.99
2019-05-22T05:29:31.989Z,99.99
2019-05-22T05:30:31.900Z,99.99
2019-05-22T05:31:31.852Z,99.99
2019-05-22T05:32:31.796Z,99.99
2019-05-22T05:33:31.743Z,99.99
2019-05-22T05:34:31.733Z,99.99
2019-05-22T05:35:31.642Z,99.99
2019-05-22T05:36:31.595Z,99.99
2019-05-22T05:37:31.535Z,99.99
2019-05-22T05:38:31.484Z,99.99
2019-05-22T05:39:31.471Z,99.99
2019-05-22T05:40:31.394Z,99.99
2019-05-22T05:41:31.359Z,99.99
2019-05-22T05:42:31.279Z,99.99
2019-05-22T05:43:31.224Z,99.99
2019-05-22T05:44:31.174Z,99.99
2019-05-22T05:45:31.120Z,99.99
2019-05-22T05:46:31.098Z,99.99
2019-05-22T05:47:31.019Z,99.99
2019-05-22T05:48:30.966Z,99.99
2019-05-22T05:49:30.927Z,99.99
2019-05-22T05:50:39.495Z,99.99
2019-05-22T05:51:30.817Z,99.99
2019-05-22T05:52:30.779Z,99.99
2019-05-22T05:53:30.722Z,99.99
2019-05-22T05:54:30.663Z,99.99
2019-05-22T05:55:30.665Z,99.99
2019-05-22T05:56:30.554Z,99.99
2019-05-22T05:57:30.541Z,99.99
2019-05-22T05:58:30.450Z,99.99
2019-05-22T05:59:30.398Z,99.99
2019-05-22T06:00:30.343Z,99.99
2019-05-22T06:01:30.300Z,99.99
2019-05-22T06:02:30.279Z,99.99
2019-05-22T06:03:30.188Z,99.99
2019-05-22T06:04:34.786Z,99.99
2019-05-22T06:05:30.083Z,99.99
2019-05-22T06:06:30.034Z,99.99
2019-05-22T06:07:30.018Z,99.99
2019-05-22T06:08:29.929Z,99.99
2019-05-22T06:09:29.876Z,99.99
2019-05-22T06:10:29.830Z,99.99
2019-05-22T06:11:29.773Z,99.99
2019-05-22T06:12:29.752Z,99.99
2019-05-22T06:13:29.668Z,99.99
2019-05-22T06:14:29.652Z,99.99
2019-05-22T06:15:45.615Z,99.99
2019-05-22T06:16:29.515Z,99.99
2019-05-22T06:17:29.464Z,99.99
2019-05-22T06:18:29.413Z,99.99
2019-05-22T06:19:29.392Z,99.99
2019-05-22T06:20:29.307Z,99.99
2019-05-22T06:21:29.254Z,99.99
2019-05-22T06:22:29.200Z,99.99
2019-05-22T06:23:29.156Z,99.99
2019-05-22T06:24:29.138Z,99.99
2019-05-22T06:25:29.046Z,99.99
2019-05-22T06:26:28.998Z,99.99
2019-05-22T06:27:28.944Z,99.99
2019-05-22T06:28:28.890Z,99.99
2019-05-22T06:29:29.035Z,99.99
2019-05-22T06:30:28.786Z,99.99
2019-05-22T06:31:28.736Z,99.99
2019-05-22T06:32:28.687Z,99.99
2019-05-22T06:33:28.632Z,99.99
2019-05-22T06:34:28.630Z,99.99
2019-05-22T06:35:28.526Z,99.99
2019-05-22T06:36:28.473Z,99.99
2019-05-22T06:37:28.422Z,99.99
2019-05-22T06:38:28.371Z,99.99
2019-05-22T06:39:28.370Z,99.99
2019-05-22T06:40:28.267Z,99.99
2019-05-22T06:41:28.248Z,99.99
2019-05-22T06:42:28.169Z,99.99
2019-05-22T06:43:28.118Z,99.99
2019-05-22T06:44:28.060Z,99.99
2019-05-22T06:45:28.050Z,99.99
2019-05-22T06:46:27.956Z,99.99
2019-05-22T06:47:27.903Z,99.99
2019-05-22T06:48:27.852Z,99.99
2019-05-22T06:49:27.806Z,99.99
2019-05-22T06:50:27.810Z,99.99
2019-05-22T06:51:27.696Z,99.99
2019-05-22T06:52:27.646Z,99.99
2019-05-22T06:53:27.596Z,99.99
2019-05-22T06:54:27.611Z,99.99
2019-05-22T06:55:27.528Z,99.99
2019-05-22T06:56:27.440Z,99.99
2019-05-22T06:57:27.391Z,99.99
2019-05-22T06:58:27.335Z,99.99
2019-05-22T06:59:27.285Z,99.99
2019-05-22T07:00:27.274Z,99.99
2019-05-22T07:01:27.181Z,99.99
2019-05-22T07:02:27.160Z,99.99
2019-05-22T07:03:27.084Z,99.99
2019-05-22T07:04:27.035Z,99.99
2019-05-22T07:05:27.005Z,99.99
2019-05-22T07:06:26.923Z,99.99
2019-05-22T07:07:26.870Z,99.99
2019-05-22T07:08:26.828Z,99.99
2019-05-22T07:09:26.769Z,99.99
2019-05-22T07:10:26.754Z,99.99
2019-05-22T07:11:26.667Z,99.99
2019-05-22T07:12:26.619Z,99.99
2019-05-22T07:13:26.563Z,99.99
2019-05-22T07:14:26.541Z,99.99
2019-05-22T07:15:26.460Z,99.99
2019-05-22T07:16:26.407Z,99.99
2019-05-22T07:17:26.360Z,99.99
2019-05-22T07:18:26.305Z,99.99
2019-05-22T07:19:26.296Z,99.99
2019-05-22T07:20:26.202Z,99.99
2019-05-22T07:21:33.725Z,99.99
2019-05-22T07:22:26.099Z,99.99
2019-05-22T07:23:28.763Z,99.99
2019-05-22T07:24:26.785Z,99.99
2019-05-22T07:25:25.985Z,99.99
2019-05-22T07:26:25.907Z,99.99
2019-05-22T07:27:25.878Z,99.99
2019-05-22T07:28:25.826Z,99.99
2019-05-22T07:29:25.757Z,99.99
2019-05-22T07:30:25.690Z,99.99
2019-05-22T07:31:25.642Z,99.99
2019-05-22T07:32:25.629Z,99.99
2019-05-22T07:33:25.538Z,99.99
2019-05-22T07:34:25.488Z,99.99
2019-05-22T07:35:42.362Z,99.99
2019-05-22T07:36:25.385Z,99.99
2019-05-22T07:37:25.374Z,99.99
2019-05-22T07:38:25.296Z,99.99
2019-05-22T07:39:25.259Z,99.99
2019-05-22T07:40:25.183Z,99.99
2019-05-22T07:41:25.158Z,99.99
2019-05-22T07:42:25.123Z,99.99
2019-05-22T07:43:27.209Z,99.99
2019-05-22T07:44:25.007Z,99.99
2019-05-22T07:45:24.931Z,99.99
2019-05-22T07:46:24.878Z,99.99
2019-05-22T07:47:25.066Z,99.99
2019-05-22T07:48:24.781Z,99.99
2019-05-22T07:49:24.764Z,99.99
2019-05-22T07:50:24.680Z,99.99
2019-05-22T07:51:24.677Z,99.99
2019-05-22T07:52:24.612Z,99.99
2019-05-22T07:53:24.525Z,99.99
2019-05-22T07:54:24.497Z,99.99
2019-05-22T07:55:24.428Z,99.99
2019-05-22T07:56:24.371Z,99.99
2019-05-22T07:57:24.321Z,99.99
2019-05-22T07:58:24.275Z,99.99
2019-05-22T07:59:24.260Z,99.99
2019-05-22T08:00:24.173Z,99.99
2019-05-22T08:01:24.118Z,99.99
2019-05-22T08:02:24.068Z,99.99
2019-05-22T08:03:24.060Z,99.99
2019-05-22T08:04:23.985Z,99.99
2019-05-22T08:05:23.916Z,99.99
2019-05-22T08:06:23.868Z,99.99
2019-05-22T08:07:23.818Z,99.99
2019-05-22T08:08:23.821Z,99.99
2019-05-22T08:09:23.721Z,99.99
2019-05-22T08:10:23.666Z,99.99
2019-05-22T08:11:23.614Z,99.99
2019-05-22T08:12:23.724Z,99.99
2019-05-22T08:13:23.547Z,99.99
2019-05-22T08:14:23.486Z,99.99
2019-05-22T08:15:23.495Z,99.99
2019-05-22T08:16:23.415Z,99.99
2019-05-22T08:17:23.371Z,99.99
2019-05-22T08:18:23.274Z,99.99
2019-05-22T08:19:23.223Z,99.99
2019-05-22T08:20:23.157Z,99.99
2019-05-22T08:21:23.787Z,99.99
2019-05-22T08:22:23.063Z,99.99
2019-05-22T08:23:29.807Z,99.99
2019-05-22T08:24:22.974Z,99.99
2019-05-22T08:25:22.913Z,99.99
2019-05-22T08:26:25.031Z,99.99
2019-05-22T08:27:22.822Z,99.99
2019-05-22T08:28:22.749Z,99.99
2019-05-22T08:29:22.738Z,99.99
2019-05-22T08:30:22.651Z,99.99
2019-05-22T08:31:22.602Z,99.99
2019-05-22T08:32:23.282Z,99.99
2019-05-22T08:33:22.501Z,99.99
2019-05-22T08:34:22.497Z,99.99
2019-05-22T08:35:22.395Z,99.99
2019-05-22T08:36:22.344Z,99.99
2019-05-22T08:37:22.291Z,99.99
2019-05-22T08:38:22.260Z,99.99
2019-05-22T08:39:22.254Z,99.99
2019-05-22T08:40:22.145Z,99.99
2019-05-22T08:41:22.091Z,99.99
2019-05-22T08:42:22.036Z,99.99
2019-05-22T08:43:21.986Z,99.99
2019-05-22T08:44:21.969Z,99.99
2019-05-22T08:45:21.891Z,99.99
2019-05-22T08:46:21.834Z,99.99
2019-05-22T08:47:21.786Z,99.99
2019-05-22T08:48:21.749Z,99.99
2019-05-22T08:49:21.711Z,99.99
2019-05-22T08:50:22.320Z,99.99
2019-05-22T08:51:21.589Z,99.99
2019-05-22T08:52:23.935Z,99.99
2019-05-22T08:53:21.529Z,99.99
2019-05-22T08:54:21.477Z,99.99
2019-05-22T08:55:21.430Z,99.99
2019-05-22T08:56:22.295Z,99.99
2019-05-22T08:57:21.280Z,99.99
2019-05-22T08:58:21.230Z,99.99
2019-05-22T08:59:21.188Z,99.99
2019-05-22T09:00:21.160Z,99.99
2019-05-22T09:01:21.072Z,99.99
2019-05-22T09:02:21.045Z,99.99
2019-05-22T09:03:20.995Z,99.99
2019-05-22T09:04:20.927Z,99.99
2019-05-22T09:05:21.818Z,99.99
2019-05-22T09:06:20.822Z,99.99
2019-05-22T09:07:20.791Z,99.99
2019-05-22T09:08:20.718Z,99.99
2019-05-22T09:09:20.664Z,99.99
2019-05-22T09:10:20.626Z,99.99
2019-05-22T09:11:20.587Z,99.99
2019-05-22T09:12:20.513Z,99.99
2019-05-22T09:13:20.461Z,99.99
2019-05-22T09:14:20.446Z,99.99
2019-05-22T09:15:20.360Z,99.99
2019-05-22T09:16:20.355Z,99.99
2019-05-22T09:17:20.258Z,99.99
2019-05-22T09:18:20.237Z,99.99
2019-05-22T09:19:20.185Z,99.99
2019-05-22T09:20:20.106Z,99.99
2019-05-22T09:21:20.060Z,99.99
2019-05-22T09:22:20.005Z,99.99
2019-05-22T09:23:19.987Z,99.99
2019-05-22T09:24:19.903Z,99.99
2019-05-22T09:25:19.864Z,99.99
2019-05-22T09:26:19.854Z,99.99
2019-05-22T09:27:19.749Z,99.99
2019-05-22T09:28:19.703Z,99.99
2019-05-22T09:29:19.652Z,99.99
2019-05-22T09:30:19.629Z,99.99
2019-05-22T09:31:19.545Z,99.99
2019-05-22T09:32:19.497Z,99.99
2019-05-22T09:33:19.444Z,99.99
2019-05-22T09:34:19.408Z,99.99
2019-05-22T09:35:19.481Z,99.99
2019-05-22T09:36:19.291Z,99.99
2019-05-22T09:37:19.254Z,99.99
2019-05-22T09:38:19.196Z,99.99
2019-05-22T09:39:19.139Z,99.99
2019-05-22T09:40:19.123Z,99.99
2019-05-22T09:41:19.040Z,99.99
2019-05-22T09:42:18.993Z,99.99
2019-05-22T09:43:18.944Z,99.99
2019-05-22T09:44:18.891Z,99.99
2019-05-22T09:45:18.878Z,99.99
2019-05-22T09:46:18.789Z,99.99
2019-05-22T09:47:18.738Z,99.99
2019-05-22T09:48:18.690Z,99.99
2019-05-22T09:49:18.640Z,99.99
2019-05-22T09:50:18.615Z,99.99
2019-05-22T09:51:18.574Z,99.99
2019-05-22T09:52:18.486Z,99.99
2019-05-22T09:53:18.436Z,99.99
2019-05-22T09:54:18.393Z,99.99
2019-05-22T09:55:18.368Z,99.99
2019-05-22T09:56:18.337Z,99.99
2019-05-22T09:57:18.254Z,99.99
2019-05-22T09:58:18.204Z,99.99
2019-05-22T09:59:18.137Z,99.99
2019-05-22T10:00:18.095Z,99.99
2019-05-22T10:01:18.071Z,99.99
2019-05-22T10:02:17.993Z,99.99
2019-05-22T10:03:17.941Z,99.99
2019-05-22T10:04:17.900Z,99.99
2019-05-22T10:05:17.841Z,99.99
2019-05-22T10:06:17.825Z,99.99
2019-05-22T10:07:17.741Z,99.99
2019-05-22T10:08:17.692Z,99.99
2019-05-22T10:09:17.643Z,99.99
2019-05-22T10:10:17.592Z,99.99
2019-05-22T10:11:17.580Z,99.99
2019-05-22T10:12:17.524Z,99.99
2019-05-22T10:13:17.455Z,99.99
2019-05-22T10:14:17.397Z,99.99
2019-05-22T10:15:17.347Z,99.99
2019-05-22T10:16:17.331Z,99.99
2019-05-22T10:17:17.251Z,99.99
2019-05-22T10:18:17.231Z,99.99
2019-05-22T10:19:17.157Z,99.99
2019-05-22T10:20:17.106Z,99.99
2019-05-22T10:21:17.124Z,99.99
2019-05-22T10:22:17.013Z,99.99
2019-05-22T10:23:16.959Z,99.99
2019-05-22T10:24:16.914Z,99.99
2019-05-22T10:25:17.441Z,99.99
2019-05-22T10:26:16.848Z,99.99
2019-05-22T10:27:16.772Z,99.99
2019-05-22T10:28:16.720Z,99.99
2019-05-22T10:29:16.669Z,99.99
2019-05-22T10:30:16.622Z,99.99
2019-05-22T10:31:17.892Z,99.99
2019-05-22T10:32:16.523Z,99.99
2019-05-22T10:33:16.547Z,99.99
2019-05-22T10:34:16.432Z,99.99
2019-05-22T10:35:16.415Z,99.99
2019-05-22T10:36:16.366Z,99.99
2019-05-22T10:37:16.283Z,99.99
2019-05-22T10:38:16.236Z,99.99
2019-05-22T10:39:16.223Z,99.99
2019-05-22T10:40:16.138Z,99.99
2019-05-22T10:41:16.128Z,99.99
2019-05-22T10:42:16.042Z,99.99
2019-05-22T10:43:16.056Z,99.99
2019-05-22T10:44:15.975Z,99.99
2019-05-22T10:45:15.902Z,99.99
2019-05-22T10:46:15.857Z,99.99
2019-05-22T10:47:18.658Z,99.99
2019-05-22T10:48:15.752Z,99.99
2019-05-22T10:49:15.740Z,99.99
2019-05-22T10:50:15.654Z,99.99
2019-05-22T10:51:15.604Z,99.99
2019-05-22T10:52:15.557Z,99.99
2019-05-22T10:53:30.659Z,99.99
2019-05-22T10:54:15.458Z,99.99
2019-05-22T10:55:15.443Z,99.99
2019-05-22T10:56:15.359Z,99.99
2019-05-22T10:57:15.315Z,99.99
2019-05-22T10:58:15.307Z,99.99
2019-05-22T10:59:15.217Z,99.99
2019-05-22T11:00:15.170Z,99.99
2019-05-22T11:01:15.122Z,99.99
2019-05-22T11:02:15.069Z,99.99
2019-05-22T11:03:15.053Z,99.99
2019-05-22T11:04:18.957Z,99.99
2019-05-22T11:05:14.920Z,99.99
2019-05-22T11:06:14.879Z,99.99
2019-05-22T11:07:14.829Z,99.99
2019-05-22T11:08:14.805Z,99.99
2019-05-22T11:09:14.724Z,99.99
2019-05-22T11:10:14.682Z,99.99
2019-05-22T11:11:14.658Z,99.99
2019-05-22T11:12:14.576Z,99.99
2019-05-22T11:13:14.529Z,99.99
2019-05-22T11:14:14.482Z,99.99
2019-05-22T11:15:14.430Z,99.99
2019-05-22T11:16:14.418Z,99.99
2019-05-22T11:17:14.346Z,99.99
2019-05-22T11:18:14.282Z,99.99
2019-05-22T11:19:14.258Z,99.99
2019-05-22T11:20:14.203Z,99.99
2019-05-22T11:21:14.164Z,99.99
2019-05-22T11:22:14.083Z,99.99
2019-05-22T11:23:14.040Z,99.99
2019-05-22T11:24:13.986Z,99.99
2019-05-22T11:25:13.944Z,99.99
2019-05-22T11:26:13.918Z,99.99
2019-05-22T11:27:13.863Z,99.99
2019-05-22T11:28:13.787Z,99.99
2019-05-22T11:29:13.761Z,99.99
2019-05-22T11:30:13.720Z,99.99
2019-05-22T11:31:13.649Z,99.99
2019-05-22T11:32:13.592Z,99.99
2019-05-22T11:33:13.540Z,99.99
2019-05-22T11:34:13.492Z,99.99
2019-05-22T11:35:13.475Z,99.99
2019-05-22T11:36:13.393Z,99.99
2019-05-22T11:37:13.343Z,99.99
2019-05-22T11:38:13.295Z,99.99
2019-05-22T11:39:13.247Z,99.99
2019-05-22T11:40:13.233Z,99.99
2019-05-22T11:41:13.145Z,99.99
2019-05-22T11:42:13.123Z,99.99
2019-05-22T11:43:13.085Z,99.99
2019-05-22T11:44:12.999Z,99.99
2019-05-22T11:45:12.945Z,99.99
2019-05-22T11:46:12.935Z,99.99
2019-05-22T11:47:12.846Z,99.99
2019-05-22T11:48:12.805Z,99.99
2019-05-22T11:49:12.777Z,99.99
2019-05-22T11:50:12.736Z,99.99
2019-05-22T11:51:12.648Z,99.99
2019-05-22T11:52:12.597Z,99.99
2019-05-22T11:53:12.546Z,99.99
2019-05-22T11:54:12.532Z,99.99
2019-05-22T11:55:12.471Z,99.99
2019-05-22T11:56:12.415Z,99.99
2019-05-22T11:57:12.347Z,99.99
2019-05-22T11:58:12.298Z,99.99
2019-05-22T11:59:12.249Z,99.99
2019-05-22T12:00:12.231Z,99.99
2019-05-22T12:01:12.147Z,99.99
2019-05-22T12:02:12.099Z,99.99
2019-05-22T12:03:12.081Z,99.99
2019-05-22T12:04:12.003Z,99.99
2019-05-22T12:05:11.952Z,99.99
2019-05-22T12:06:11.899Z,99.99
2019-05-22T12:07:11.848Z,99.99
2019-05-22T12:08:11.831Z,99.99
2019-05-22T12:09:11.749Z,99.99
2019-05-22T12:10:11.702Z,99.99
2019-05-22T12:11:11.650Z,99.99
2019-05-22T12:12:11.600Z,99.99
2019-05-22T12:13:11.908Z,99.99
2019-05-22T12:14:11.562Z,99.99
2019-05-22T12:15:11.456Z,99.99
2019-05-22T12:16:11.401Z,99.99
2019-05-22T12:17:11.350Z,99.99
2019-05-22T12:18:11.297Z,99.99
2019-05-22T12:19:11.286Z,99.99
2019-05-22T12:20:11.204Z,99.99
2019-05-22T12:21:11.154Z,99.99
2019-05-22T12:22:11.135Z,99.99
2019-05-22T12:23:11.050Z,99.99
2019-05-22T12:24:26.069Z,99.99
2019-05-22T12:25:10.955Z,99.99
2019-05-22T12:26:10.899Z,99.99
2019-05-22T12:27:10.883Z,99.99
2019-05-22T12:28:10.823Z,99.99
2019-05-22T12:29:10.751Z,99.99
2019-05-22T12:30:10.699Z,99.99
2019-05-22T12:31:10.703Z,99.99
2019-05-22T12:32:10.605Z,99.99
2019-05-22T12:33:13.995Z,99.99
2019-05-22T12:34:10.501Z,99.99
2019-05-22T12:35:10.451Z,99.99
2019-05-22T12:36:10.433Z,99.99
2019-05-22T12:37:10.357Z,99.99
2019-05-22T12:38:10.299Z,99.99
2019-05-22T12:39:10.256Z,99.99
2019-05-22T12:40:10.203Z,99.99
2019-05-22T12:41:10.228Z,99.99
2019-05-22T12:42:10.101Z,99.99
2019-05-22T12:43:10.053Z,99.99
2019-05-22T12:44:10.005Z,99.99
2019-05-22T12:45:09.989Z,99.99
2019-05-22T12:46:09.919Z,99.99
2019-05-22T12:47:09.851Z,99.99
2019-05-22T12:48:09.803Z,99.99
2019-05-22T12:49:09.763Z,99.99
2019-05-22T12:50:09.733Z,99.99
2019-05-22T12:51:09.652Z,99.99
2019-05-22T12:52:09.605Z,99.99